Time;durP1;ratioP1;P1;durP2;ratioP2;P2;SDS_P1;SDS_P2;PMS_P1;PMS_P2;Temp;Humidity;BMP_temperature;BMP_pressure;BME280_temperature;BME280_humidity;BME280_pressure;Samples;Min_cycle;Max_cycle;Signal;HPM_P1;HPM_P2
2023/04/09 04:01:48;;;;;;;0.60;0.20;;;7.50;99.90;;;;;;5383433;23;20497;-73
2023/04/09 04:04:16;;;;;;;0.50;0.10;;;7.50;99.90;;;;;;4898497;29;20523;-74
2023/04/09 04:06:44;;;;;;;0.50;0.10;;;7.40;99.90;;;;;;4890583;29;20446;-73
2023/04/09 04:09:11;;;;;;;0.50;0.10;;;7.40;99.90;;;;;;4898360;29;20450;-73
2023/04/09 04:11:39;;;;;;;1.90;1.80;;;7.50;99.90;;;;;;4899859;29;20465;-74
2023/04/09 04:14:07;;;;;;;0.50;0.10;;;7.40;99.90;;;;;;4900642;29;20467;-74
2023/04/09 04:16:35;;;;;;;0.50;0.20;;;7.40;99.90;;;;;;4900152;29;20460;-75
2023/04/09 04:19:04;;;;;;;0.60;0.30;;;7.40;99.90;;;;;;4898867;29;20869;-73
2023/04/09 04:21:32;;;;;;;0.50;0.20;;;7.40;99.90;;;;;;4898125;29;20987;-74
2023/04/09 04:24:00;;;;;;;0.50;0.10;;;7.40;99.90;;;;;;4901306;29;21208;-75
2023/04/09 04:26:27;;;;;;;0.70;0.50;;;7.40;99.90;;;;;;4902093;29;20480;-74
2023/04/09 04:28:55;;;;;;;3.17;2.97;;;7.40;99.90;;;;;;4903264;29;20457;-74
2023/04/09 04:31:23;;;;;;;0.50;0.30;;;7.40;99.90;;;;;;4903261;29;20988;-74
2023/04/09 04:33:51;;;;;;;0.50;0.10;;;7.40;99.90;;;;;;4890932;29;20501;-73
2023/04/09 04:36:20;;;;;;;10.57;3.30;;;7.40;99.90;;;;;;4883067;29;20456;-73
2023/04/09 04:38:48;;;;;;;0.50;0.10;;;;;;;;;;4884319;29;20550;-74
2023/04/09 04:41:17;;;;;;;0.50;0.20;;;7.40;99.90;;;;;;4883562;29;20513;-72
2023/04/09 04:43:46;;;;;;;0.50;0.10;;;7.40;99.90;;;;;;4866124;29;20543;-74
2023/04/09 04:46:14;;;;;;;0.50;0.10;;;7.40;99.90;;;;;;4860064;29;20520;-73
2023/04/09 04:48:42;;;;;;;0.50;0.10;;;7.40;99.90;;;;;;4860500;29;20458;-73
2023/04/09 04:51:10;;;;;;;0.50;0.10;;;7.40;99.90;;;;;;4864988;29;20479;-73
2023/04/09 04:53:39;;;;;;;0.50;0.10;;;7.40;99.90;;;;;;4860238;29;20447;-73
2023/04/09 04:56:12;;;;;;;0.50;0.10;;;7.40;99.90;;;;;;4860273;29;20459;-74
2023/04/09 04:58:40;;;;;;;0.50;0.10;;;7.40;99.90;;;;;;4862214;29;20459;-75
2023/04/09 05:01:07;;;;;;;0.60;0.57;;;7.40;99.90;;;;;;4879553;29;20864;-73
2023/04/09 05:03:35;;;;;;;4.23;3.93;;;7.40;99.90;;;;;;4880941;29;20525;-73
2023/04/09 05:06:03;;;;;;;0.50;0.10;;;7.40;99.90;;;;;;4880452;29;21057;-72
2023/04/09 05:08:31;;;;;;;0.50;0.10;;;7.40;99.90;;;;;;4879013;29;20889;-73
2023/04/09 05:11:00;;;;;;;0.93;0.93;;;7.40;99.90;;;;;;4878228;29;20478;-73
2023/04/09 05:13:28;;;;;;;0.50;0.10;;;7.40;99.90;;;;;;4878488;29;20858;-74
2023/04/09 05:15:56;;;;;;;0.50;0.10;;;7.40;99.90;;;;;;4878775;29;20585;-74
2023/04/09 05:18:24;;;;;;;0.50;0.10;;;7.40;99.90;;;;;;4881885;29;20500;-73
2023/04/09 05:20:51;;;;;;;0.50;0.10;;;7.40;99.90;;;;;;4880890;29;20526;-75
2023/04/09 05:23:19;;;;;;;0.50;0.10;;;7.40;99.90;;;;;;4863426;29;20863;-73
2023/04/09 05:25:48;;;;;;;0.50;0.20;;;7.40;99.90;;;;;;4863716;29;20477;-73
2023/04/09 05:28:18;;;;;;;0.50;0.10;;;7.50;99.90;;;;;;4863507;29;20482;-74
2023/04/09 05:30:46;;;;;;;0.50;0.10;;;7.50;99.90;;;;;;4882741;29;20548;-73
2023/04/09 05:33:15;;;;;;;0.50;0.10;;;7.50;99.90;;;;;;4890316;29;20647;-74
2023/04/09 05:35:42;;;;;;;0.50;0.10;;;7.50;99.90;;;;;;4874695;29;20462;-74
2023/04/09 05:38:12;;;;;;;0.50;0.10;;;7.50;99.90;;;;;;4863401;29;20459;-73
2023/04/09 05:40:41;;;;;;;0.50;0.10;;;7.50;99.90;;;;;;4863230;29;20455;-75
2023/04/09 05:43:08;;;;;;;0.50;0.10;;;7.50;99.90;;;;;;4865572;29;20469;-72
2023/04/09 05:45:38;;;;;;;0.50;0.10;;;7.50;99.90;;;;;;4881776;29;20488;-74
2023/04/09 05:48:06;;;;;;;0.50;0.10;;;7.60;99.90;;;;;;4881685;29;20884;-71
2023/04/09 05:50:34;;;;;;;0.50;0.10;;;7.60;99.90;;;;;;4882131;29;20461;-74
2023/04/09 05:53:20;;;;;;;0.50;0.10;;;7.60;99.90;;;;;;4865525;29;20459;-72
2023/04/09 05:55:49;;;;;;;0.50;0.10;;;7.60;99.90;;;;;;4864261;29;20459;-75
2023/04/09 05:58:17;;;;;;;0.50;0.10;;;7.70;99.90;;;;;;4863518;29;20973;-75
2023/04/09 06:00:46;;;;;;;0.87;0.87;;;7.80;99.90;;;;;;4863429;29;20493;-74
2023/04/09 06:03:14;;;;;;;0.50;0.10;;;7.80;99.90;;;;;;4863219;29;20515;-74
2023/04/09 06:05:44;;;;;;;0.50;0.10;;;7.80;99.90;;;;;;4863340;29;20491;-73
2023/04/09 06:08:12;;;;;;;0.50;0.20;;;7.80;99.90;;;;;;4877393;29;20518;-74
2023/04/09 06:10:40;;;;;;;0.50;0.10;;;7.90;99.90;;;;;;4881332;29;20450;-74
2023/04/09 06:13:10;;;;;;;0.50;0.10;;;7.90;99.90;;;;;;4880913;29;20454;-75
2023/04/09 06:15:38;;;;;;;0.50;0.10;;;8.00;99.90;;;;;;4864261;29;20462;-74
2023/04/09 06:18:07;;;;;;;0.50;0.10;;;8.00;99.90;;;;;;4862973;29;20451;-73
2023/04/09 06:20:35;;;;;;;0.50;0.10;;;8.20;99.90;;;;;;4867061;29;20474;-74
2023/04/09 06:23:03;;;;;;;0.50;0.10;;;8.20;99.90;;;;;;4880676;29;20490;-73
2023/04/09 06:25:31;;;;;;;0.50;0.10;;;8.30;99.90;;;;;;4889909;29;20493;-74
2023/04/09 06:27:59;;;;;;;0.50;0.10;;;8.30;99.90;;;;;;4887061;29;20458;-74
2023/04/09 06:30:26;;;;;;;0.50;0.10;;;8.40;99.90;;;;;;4890533;29;21018;-73
2023/04/09 06:32:54;;;;;;;0.60;0.40;;;8.40;99.90;;;;;;4900411;29;20842;-74
2023/04/09 06:35:24;;;;;;;0.50;0.10;;;8.50;99.90;;;;;;4881042;29;20550;-74
2023/04/09 06:37:52;;;;;;;0.50;0.10;;;8.60;99.90;;;;;;4880576;29;20454;-73
2023/04/09 06:40:21;;;;;;;0.60;0.30;;;8.70;99.90;;;;;;4877638;29;20465;-74
2023/04/09 06:42:50;;;;;;;0.50;0.10;;;8.80;99.90;;;;;;4865968;29;20470;-74
2023/04/09 06:45:18;;;;;;;0.50;0.20;;;8.80;99.90;;;;;;4867933;29;20487;-73
2023/04/09 06:47:46;;;;;;;0.50;0.10;;;8.90;99.90;;;;;;4868424;29;20466;-74
2023/04/09 06:50:14;;;;;;;0.50;0.10;;;9.00;99.90;;;;;;4868537;29;20478;-75
2023/04/09 06:52:43;;;;;;;1.33;1.23;;;9.10;99.90;;;;;;4897520;29;20473;-74
2023/04/09 06:55:11;;;;;;;0.50;0.10;;;9.10;99.90;;;;;;4888642;29;20454;-74
2023/04/09 06:57:39;;;;;;;0.97;0.97;;;9.20;99.90;;;;;;4890633;29;20454;-73
2023/04/09 07:00:08;;;;;;;0.50;0.10;;;9.30;99.90;;;;;;4888947;29;20455;-74
2023/04/09 07:02:36;;;;;;;0.50;0.10;;;9.30;99.90;;;;;;4868092;29;20471;-73
2023/04/09 07:05:05;;;;;;;0.50;0.10;;;9.40;99.90;;;;;;4867813;29;20483;-75
2023/04/09 07:07:33;;;;;;;0.50;0.10;;;9.50;99.90;;;;;;4877031;29;20878;-75
2023/04/09 07:10:02;;;;;;;0.50;0.10;;;9.60;99.90;;;;;;4868217;29;20451;-75
2023/04/09 07:12:31;;;;;;;0.50;0.10;;;9.70;99.90;;;;;;4868526;29;20997;-73
2023/04/09 07:14:59;;;;;;;0.50;0.10;;;9.70;99.90;;;;;;4881618;29;20446;-75
2023/04/09 07:17:28;;;;;;;0.50;0.10;;;9.80;99.90;;;;;;4883043;29;20460;-74
2023/04/09 07:19:56;;;;;;;0.50;0.10;;;9.80;99.90;;;;;;4888993;29;20958;-75
2023/04/09 07:22:27;;;;;;;0.50;0.10;;;9.90;99.90;;;;;;4897346;29;20481;-74
2023/04/09 07:24:55;;;;;;;0.60;0.10;;;10.00;99.90;;;;;;4880797;29;20487;-74
2023/04/09 07:27:26;;;;;;;0.60;0.20;;;10.10;99.90;;;;;;4874222;29;20461;-73
2023/04/09 07:29:55;;;;;;;0.60;0.10;;;10.20;99.90;;;;;;4872193;29;20452;-74
2023/04/09 07:32:23;;;;;;;0.60;0.20;;;10.30;99.90;;;;;;4873260;29;20836;-75
2023/04/09 07:34:52;;;;;;;0.60;0.10;;;10.40;99.90;;;;;;4883032;29;20507;-74
2023/04/09 07:37:20;;;;;;;0.60;0.10;;;10.40;99.90;;;;;;4875730;29;20462;-74
2023/04/09 07:39:50;;;;;;;0.60;0.10;;;10.50;99.90;;;;;;4883444;29;20471;-74
2023/04/09 07:42:17;;;;;;;0.80;0.57;;;10.50;99.90;;;;;;4898073;29;20982;-75
2023/04/09 07:44:47;;;;;;;0.87;0.70;;;10.50;99.90;;;;;;4901109;29;20489;-73
2023/04/09 07:47:15;;;;;;;0.60;0.20;;;10.50;99.90;;;;;;4885091;29;20469;-75
2023/04/09 07:49:43;;;;;;;0.60;0.10;;;10.50;99.90;;;;;;4882470;29;20443;-74
2023/04/09 07:52:11;;;;;;;0.60;0.10;;;10.70;99.90;;;;;;4891446;29;20490;-75
2023/04/09 07:54:39;;;;;;;0.90;0.70;;;10.80;99.90;;;;;;4900028;29;20453;-74
2023/04/09 07:57:07;;;;;;;0.60;0.10;;;10.90;99.90;;;;;;4890092;29;21032;-74
2023/04/09 07:59:35;;;;;;;0.60;0.10;;;11.00;99.90;;;;;;4876929;29;20973;-73
2023/04/09 08:02:04;;;;;;;0.60;0.10;;;11.20;99.90;;;;;;4886241;29;20993;-75
2023/04/09 08:04:32;;;;;;;2.30;2.20;;;11.20;99.90;;;;;;4880305;29;20523;-73
2023/04/09 08:07:00;;;;;;;0.60;0.10;;;11.30;99.90;;;;;;4894040;29;20441;-74
2023/04/09 08:09:28;;;;;;;0.60;0.20;;;11.40;99.90;;;;;;4895515;29;20479;-75
2023/04/09 08:11:56;;;;;;;0.60;0.10;;;11.50;99.90;;;;;;4899439;29;20465;-76
2023/04/09 08:14:24;;;;;;;0.60;0.10;;;11.50;99.90;;;;;;4880876;29;20497;-74
2023/04/09 08:16:52;;;;;;;0.60;0.10;;;11.60;99.90;;;;;;4891887;29;20479;-73
2023/04/09 08:19:21;;;;;;;0.60;0.20;;;11.60;99.90;;;;;;4890617;29;20454;-75
2023/04/09 08:21:49;;;;;;;0.60;0.10;;;11.80;99.90;;;;;;4891893;29;20482;-73
2023/04/09 08:24:17;;;;;;;0.60;0.20;;;11.80;99.90;;;;;;4885273;29;20472;-75
2023/04/09 08:26:45;;;;;;;0.60;0.10;;;11.80;99.90;;;;;;4893863;29;20582;-72
2023/04/09 08:29:15;;;;;;;0.60;0.10;;;11.90;99.90;;;;;;4884551;29;20464;-74
2023/04/09 08:31:43;;;;;;;0.60;0.10;;;12.00;99.90;;;;;;4884259;29;20468;-73
2023/04/09 08:34:11;;;;;;;8.60;8.20;;;12.00;99.90;;;;;;4878152;29;20477;-75
2023/04/09 08:36:41;;;;;;;1.17;1.07;;;12.10;99.90;;;;;;4892071;29;20454;-76
2023/04/09 08:39:09;;;;;;;0.60;0.10;;;12.20;99.90;;;;;;4876250;29;20453;-74
2023/04/09 08:41:41;;;;;;;0.60;0.10;;;12.30;99.90;;;;;;4892858;29;20516;-74
2023/04/09 08:44:09;;;;;;;0.60;0.10;;;12.30;99.90;;;;;;4897135;29;20443;-75
2023/04/09 08:46:37;;;;;;;0.60;0.10;;;12.40;99.90;;;;;;4897111;29;20643;-75
2023/04/09 08:49:05;;;;;;;0.60;0.10;;;12.50;99.90;;;;;;4883424;29;20456;-76
2023/04/09 08:51:36;;;;;;;0.60;0.10;;;12.50;99.90;;;;;;4863766;29;20490;-76
2023/04/09 08:54:05;;;;;;;25.37;23.77;;;12.60;99.90;;;;;;4878059;29;20475;-74
2023/04/09 08:56:33;;;;;;;0.60;0.10;;;12.60;99.90;;;;;;4883775;29;20452;-74
2023/04/09 08:59:02;;;;;;;0.60;0.10;;;;;;;;;;4893904;29;20454;-75
2023/04/09 09:01:31;;;;;;;0.60;0.10;;;12.70;99.90;;;;;;4895797;29;20493;-76
2023/04/09 09:04:01;;;;;;;0.60;0.10;;;12.70;99.90;;;;;;4892656;29;20471;-74
2023/04/09 09:06:31;;;;;;;4.73;4.43;;;12.80;99.90;;;;;;4884158;29;20901;-74
2023/04/09 09:09:01;;;;;;;0.60;0.10;;;13.00;99.90;;;;;;4865146;29;20557;-74
2023/04/09 09:11:31;;;;;;;0.60;0.10;;;13.00;99.90;;;;;;4881742;29;20467;-76
2023/04/09 09:14:01;;;;;;;0.60;0.10;;;13.10;99.90;;;;;;4897514;29;20459;-74
2023/04/09 09:16:30;;;;;;;0.60;0.10;;;13.10;99.90;;;;;;4882202;29;20548;-73
2023/04/09 09:18:58;;;;;;;0.60;0.20;;;13.10;99.90;;;;;;4906594;29;20461;-74
2023/04/09 09:21:28;;;;;;;0.60;0.10;;;13.20;99.90;;;;;;4907089;29;20555;-74
2023/04/09 09:23:56;;;;;;;0.60;0.10;;;13.20;99.90;;;;;;4882528;29;20473;-74
2023/04/09 09:26:26;;;;;;;0.60;0.10;;;13.20;99.90;;;;;;4893554;29;20515;-74
2023/04/09 09:28:57;;;;;;;0.60;0.10;;;13.30;99.90;;;;;;4884928;29;20453;-74
2023/04/09 09:31:26;;;;;;;0.60;0.20;;;13.40;99.90;;;;;;4881370;29;20554;-74
2023/04/09 09:33:55;;;;;;;0.60;0.10;;;13.40;99.90;;;;;;4880593;29;20472;-73
2023/04/09 09:36:33;;;;;;;0.60;0.10;;;13.40;99.90;;;;;;4889931;29;20481;-76
2023/04/09 09:39:08;;;;;;;0.60;0.10;;;13.50;99.90;;;;;;4884668;29;20461;-73
2023/04/09 09:41:37;;;;;;;0.60;0.20;;;13.60;99.90;;;;;;4889471;29;20537;-74
2023/04/09 09:44:07;;;;;;;0.60;0.10;;;13.70;99.90;;;;;;4876918;29;20458;-74
2023/04/09 09:46:37;;;;;;;0.60;0.10;;;13.70;99.90;;;;;;4877517;29;20986;-74
2023/04/09 09:49:05;;;;;;;0.60;0.10;;;13.80;99.90;;;;;;4881490;29;20474;-73
2023/04/09 09:51:37;;;;;;;0.60;0.10;;;14.00;99.90;;;;;;4886503;29;20484;-74
2023/04/09 09:54:07;;;;;;;0.60;0.10;;;14.00;99.90;;;;;;4879753;29;20462;-75
2023/04/09 09:56:38;;;;;;;0.60;0.10;;;14.00;99.90;;;;;;4877265;29;20953;-73
2023/04/09 09:59:13;;;;;;;0.60;0.20;;;14.10;99.90;;;;;;4879091;29;20481;-75
2023/04/09 10:01:41;;;;;;;0.60;0.10;;;14.10;99.90;;;;;;4883096;29;20536;-74
2023/04/09 10:04:13;;;;;;;0.60;0.10;;;14.20;99.90;;;;;;4887502;29;20544;-74
2023/04/09 10:06:44;;;;;;;0.60;0.10;;;14.30;99.90;;;;;;4892254;29;20973;-74
2023/04/09 10:09:12;;;;;;;0.60;0.10;;;14.40;99.90;;;;;;4882785;29;20442;-74
2023/04/09 10:11:44;;;;;;;0.60;0.10;;;14.40;99.90;;;;;;4881444;29;20489;-73
2023/04/09 10:14:14;;;;;;;0.60;0.10;;;14.40;99.90;;;;;;4878775;29;20795;-74
2023/04/09 10:16:42;;;;;;;0.60;0.10;;;14.30;99.90;;;;;;4912261;23;20585;-70
2023/04/09 10:19:12;;;;;;;0.60;0.10;;;14.30;99.90;;;;;;4899490;29;20464;-71
2023/04/09 10:21:46;;;;;;;0.60;0.10;;;14.30;99.90;;;;;;4901513;29;20962;-68
2023/04/09 10:24:15;;;;;;;0.60;0.10;;;14.30;99.90;;;;;;4908336;29;20448;-67
2023/04/09 10:26:44;;;;;;;0.60;0.10;;;14.40;99.90;;;;;;4897291;29;20494;-70
2023/04/09 10:29:15;;;;;;;0.60;0.20;;;14.50;99.90;;;;;;4907017;29;20460;-71
2023/04/09 10:31:48;;;;;;;0.60;0.10;;;14.60;99.90;;;;;;4908352;29;20463;-70
2023/04/09 10:34:17;;;;;;;0.60;0.10;;;14.60;99.90;;;;;;4911471;29;20458;-70
2023/04/09 10:36:50;;;;;;;0.60;0.10;;;14.60;99.90;;;;;;4913434;29;20481;-69
2023/04/09 10:39:18;;;;;;;0.60;0.10;;;14.70;99.90;;;;;;4900616;29;20868;-70
2023/04/09 10:41:48;;;;;;;0.60;0.10;;;14.70;99.90;;;;;;4884648;29;20461;-71
2023/04/09 10:44:21;;;;;;;0.60;0.10;;;14.80;99.90;;;;;;4882092;29;20834;-70
2023/04/09 10:46:50;;;;;;;1.47;0.40;;;14.80;99.90;;;;;;4880991;29;20554;-69
2023/04/09 10:49:19;;;;;;;0.70;0.40;;;14.70;99.90;;;;;;4889372;29;20451;-70
2023/04/09 10:51:54;;;;;;;8.03;2.30;;;14.60;99.90;;;;;;4900146;29;20449;-69
2023/04/09 10:54:45;;;;;;;0.60;0.10;;;14.50;99.90;;;;;;4882122;29;20996;-68
2023/04/09 10:57:15;;;;;;;0.60;0.10;;;14.30;99.90;;;;;;4880794;29;20462;-69
2023/04/09 10:59:47;;;;;;;0.60;0.10;;;14.20;99.90;;;;;;4883278;29;20577;-70
2023/04/09 11:02:51;;;;;;;248.13;18.57;;;14.20;99.90;;;;;;4895921;29;20471;-69
2023/04/09 11:05:28;;;;;;;0.60;0.10;;;14.10;99.90;;;;;;4886627;29;20506;-68
2023/04/09 11:08:02;;;;;;;0.60;0.10;;;14.00;99.90;;;;;;4909893;29;20496;-68
2023/04/09 11:10:31;;;;;;;0.60;0.10;;;14.00;99.90;;;;;;4908084;29;20455;-68
2023/04/09 11:12:59;;;;;;;0.60;0.10;;;14.10;99.90;;;;;;4912187;29;20440;-71
2023/04/09 11:15:29;;;;;;;0.60;0.10;;;14.10;99.90;;;;;;4911328;29;20465;-72
2023/04/09 11:17:57;;;;;;;0.60;0.10;;;14.20;99.90;;;;;;4906148;29;20999;-71
2023/04/09 11:20:26;;;;;;;0.60;0.10;;;14.20;99.90;;;;;;4908091;29;20447;-72
2023/04/09 11:22:56;;;;;;;0.60;0.10;;;14.40;99.90;;;;;;4907582;29;20445;-72
2023/04/09 11:25:26;;;;;;;0.60;0.10;;;14.40;99.90;;;;;;4916491;29;20948;-72
2023/04/09 11:27:54;;;;;;;0.60;0.10;;;14.50;99.90;;;;;;4916530;29;20589;-71
2023/04/09 11:30:22;;;;;;;0.60;0.10;;;14.60;99.90;;;;;;4914100;29;20513;-69
2023/04/09 11:32:52;;;;;;;0.60;0.10;;;14.70;99.90;;;;;;4919072;29;20957;-72
2023/04/09 11:35:22;;;;;;;0.60;0.10;;;14.80;99.90;;;;;;4908325;29;20446;-72
2023/04/09 11:37:51;;;;;;;0.60;0.10;;;14.90;99.90;;;;;;4905331;29;20473;-71
2023/04/09 11:40:21;;;;;;;0.60;0.10;;;15.00;99.90;;;;;;4914776;29;20459;-71
2023/04/09 11:42:50;;;;;;;0.60;0.10;;;15.20;99.90;;;;;;4910208;29;20472;-71
2023/04/09 11:45:20;;;;;;;0.60;0.10;;;15.10;99.90;;;;;;4901558;29;20476;-70
2023/04/09 11:47:48;;;;;;;0.60;0.10;;;15.20;99.90;;;;;;4913421;29;20938;-68
2023/04/09 11:50:18;;;;;;;0.60;0.10;;;;;;;;;;4907362;29;20466;-71
2023/04/09 11:52:46;;;;;;;0.60;0.10;;;15.40;99.90;;;;;;4904234;29;20514;-72
2023/04/09 11:55:23;;;;;;;0.60;0.10;;;15.40;99.90;;;;;;4905359;29;20449;-72
2023/04/09 11:57:52;;;;;;;0.60;0.10;;;;;;;;;;4904389;29;20482;-72
2023/04/09 12:00:23;;;;;;;0.60;0.10;;;15.50;99.90;;;;;;4905386;29;20442;-71
2023/04/09 12:02:58;;;;;;;0.60;0.10;;;15.60;99.90;;;;;;4906462;29;20807;-71
2023/04/09 12:05:29;;;;;;;0.60;0.10;;;15.60;99.90;;;;;;4904076;29;20457;-71
2023/04/09 12:07:59;;;;;;;0.60;0.10;;;15.70;99.90;;;;;;4898699;29;20996;-71
2023/04/09 12:10:29;;;;;;;0.60;0.10;;;15.70;99.90;;;;;;4906047;29;20468;-71
2023/04/09 12:13:03;;;;;;;0.60;0.20;;;15.70;99.90;;;;;;4904237;29;20527;-72
2023/04/09 12:15:32;;;;;;;0.60;0.10;;;15.70;99.90;;;;;;4907188;29;20447;-71
2023/04/09 12:18:03;;;;;;;0.60;0.10;;;15.70;99.90;;;;;;4909911;29;20475;-70
2023/04/09 12:20:35;;;;;;;0.60;0.10;;;15.70;99.90;;;;;;4903456;29;20445;-72
2023/04/09 12:23:04;;;;;;;0.60;0.10;;;15.80;99.90;;;;;;4908768;29;20453;-71
2023/04/09 12:25:34;;;;;;;0.60;0.10;;;15.80;99.90;;;;;;4897760;29;20533;-72
2023/04/09 12:28:03;;;;;;;0.60;0.10;;;15.80;99.90;;;;;;4908029;29;20480;-71
2023/04/09 12:30:33;;;;;;;0.70;0.20;;;15.80;99.90;;;;;;4916326;29;20445;-72
2023/04/09 12:33:04;;;;;;;0.60;0.10;;;15.80;99.90;;;;;;4905181;29;20983;-71
2023/04/09 12:35:39;;;;;;;0.60;0.10;;;15.70;99.90;;;;;;4905091;29;20460;-71
2023/04/09 12:38:07;;;;;;;0.60;0.10;;;15.70;99.90;;;;;;4905443;29;20467;-71
2023/04/09 12:40:36;;;;;;;0.60;0.10;;;15.80;99.90;;;;;;4898195;29;21076;-71
2023/04/09 12:43:04;;;;;;;0.60;0.10;;;15.70;99.90;;;;;;4899591;29;20449;-72
2023/04/09 12:45:33;;;;;;;0.60;0.10;;;15.70;99.90;;;;;;4900583;29;20471;-70
2023/04/09 12:48:02;;;;;;;0.60;0.10;;;15.60;99.90;;;;;;4906170;29;20525;-70
2023/04/09 12:50:30;;;;;;;0.60;0.10;;;15.60;99.90;;;;;;4911291;29;21013;-71
2023/04/09 12:52:59;;;;;;;2.50;1.03;;;15.60;99.90;;;;;;4907681;29;20443;-72
2023/04/09 12:55:27;;;;;;;0.60;0.10;;;15.50;99.90;;;;;;4907614;29;20449;-73
2023/04/09 12:58:01;;;;;;;0.60;0.10;;;;;;;;;;4903608;29;20467;-74
2023/04/09 13:00:29;;;;;;;0.60;0.20;;;15.40;99.90;;;;;;4901561;29;20451;-75
2023/04/09 13:02:58;;;;;;;0.60;0.10;;;15.50;99.90;;;;;;4910895;29;20442;-73
2023/04/09 13:05:26;;;;;;;0.70;0.40;;;15.60;99.90;;;;;;4905289;29;20527;-70
2023/04/09 13:07:54;;;;;;;0.60;0.10;;;15.70;99.90;;;;;;4900859;29;20496;-68
2023/04/09 13:10:23;;;;;;;0.60;0.10;;;15.80;99.90;;;;;;4899402;29;20471;-69
2023/04/09 13:12:51;;;;;;;0.60;0.10;;;15.90;99.90;;;;;;4906787;29;20466;-69
2023/04/09 13:15:19;;;;;;;0.60;0.10;;;16.20;99.90;;;;;;4902974;29;20466;-68
2023/04/09 13:17:47;;;;;;;0.60;0.10;;;16.30;99.90;;;;;;4900709;29;20487;-68
2023/04/09 13:20:15;;;;;;;0.60;0.10;;;16.20;99.90;;;;;;4901077;29;20488;-69
2023/04/09 13:22:47;;;;;;;0.60;0.10;;;;;;;;;;4904961;29;20454;-68
2023/04/09 13:25:16;;;;;;;0.60;0.10;;;16.40;99.90;;;;;;4902036;29;20464;-68
2023/04/09 13:27:45;;;;;;;0.60;0.10;;;16.40;99.90;;;;;;4899602;29;20496;-69
2023/04/09 13:30:13;;;;;;;0.83;0.40;;;16.40;99.90;;;;;;4900822;29;20460;-70
2023/04/09 13:32:42;;;;;;;0.60;0.10;;;16.30;99.90;;;;;;4907547;29;20491;-68
2023/04/09 13:35:10;;;;;;;0.60;0.10;;;16.50;99.90;;;;;;4902735;29;20456;-67
2023/04/09 13:37:38;;;;;;;0.60;0.10;;;16.60;99.90;;;;;;4906371;29;20502;-68
2023/04/09 13:40:08;;;;;;;0.60;0.10;;;16.70;99.90;;;;;;4908538;29;20512;-67
2023/04/09 13:42:36;;;;;;;0.60;0.10;;;16.90;99.90;;;;;;4907657;29;20462;-70
2023/04/09 13:45:07;;;;;;;0.60;0.10;;;17.20;99.90;;;;;;4896494;29;20537;-67
2023/04/09 13:47:34;;;;;;;0.70;0.57;;;17.30;99.90;;;;;;4898913;29;20531;-68
2023/04/09 13:50:03;;;;;;;0.60;0.10;;;17.40;99.90;;;;;;4908912;29;20449;-68
2023/04/09 13:52:31;;;;;;;1.33;0.63;;;17.40;99.90;;;;;;4899852;29;20460;-68
2023/04/09 13:54:59;;;;;;;0.60;0.10;;;17.40;99.90;;;;;;4897040;29;20580;-69
2023/04/09 13:57:27;;;;;;;2.40;0.60;;;17.40;99.90;;;;;;4897829;29;20465;-69
2023/04/09 13:59:54;;;;;;;0.60;0.20;;;17.20;99.90;;;;;;4906771;29;20870;-68
2023/04/09 14:02:24;;;;;;;0.60;0.10;;;17.10;99.90;;;;;;4886613;29;20471;-68
2023/04/09 14:04:52;;;;;;;0.60;0.20;;;17.00;99.90;;;;;;4893701;29;20464;-70
2023/04/09 14:07:20;;;;;;;0.60;0.10;;;16.90;99.90;;;;;;4899869;29;20475;-68
2023/04/09 14:09:49;;;;;;;0.60;0.10;;;16.90;99.90;;;;;;4900879;29;20484;-70
2023/04/09 14:12:17;;;;;;;0.60;0.30;;;16.80;99.90;;;;;;4895051;29;20464;-68
2023/04/09 14:14:45;;;;;;;0.60;0.10;;;16.70;99.90;;;;;;4900943;29;20449;-67
2023/04/09 14:17:13;;;;;;;0.70;0.30;;;16.60;98.80;;;;;;4900142;29;20498;-67
2023/04/09 14:19:42;;;;;;;0.60;0.10;;;16.60;99.90;;;;;;4900958;29;20982;-69
2023/04/09 14:22:10;;;;;;;0.60;0.10;;;16.60;99.90;;;;;;4901351;29;20503;-68
2023/04/09 14:24:38;;;;;;;0.60;0.10;;;16.60;99.90;;;;;;4889059;29;20461;-68
2023/04/09 14:27:07;;;;;;;0.60;0.10;;;16.50;98.60;;;;;;4896876;29;20562;-69
2023/04/09 14:29:35;;;;;;;0.60;0.10;;;16.50;99.90;;;;;;4900944;29;20577;-67
2023/04/09 14:32:03;;;;;;;0.60;0.20;;;16.60;99.90;;;;;;4901652;29;20453;-67
2023/04/09 14:34:31;;;;;;;0.60;0.10;;;16.70;99.90;;;;;;4902705;29;20456;-68
2023/04/09 14:37:00;;;;;;;0.60;0.10;;;16.90;99.90;;;;;;4900603;29;20489;-70
2023/04/09 14:39:28;;;;;;;0.60;0.10;;;16.90;99.90;;;;;;4898023;29;20461;-72
2023/04/09 14:41:56;;;;;;;0.60;0.10;;;16.90;99.90;;;;;;4900431;29;20452;-72
2023/04/09 14:44:25;;;;;;;0.60;0.10;;;17.00;99.90;;;;;;4901139;29;20476;-70
2023/04/09 14:46:55;;;;;;;0.60;0.10;;;17.10;99.90;;;;;;4894744;29;20481;-72
2023/04/09 14:49:23;;;;;;;0.60;0.10;;;17.10;99.90;;;;;;4903910;29;20572;-71
2023/04/09 14:51:51;;;;;;;0.60;0.30;;;17.20;99.90;;;;;;4920673;29;20471;-71
2023/04/09 14:54:20;;;;;;;0.60;0.10;;;17.40;99.90;;;;;;4921608;29;21037;-71
2023/04/09 14:56:48;;;;;;;0.60;0.10;;;17.50;98.70;;;;;;4922104;29;20479;-70
2023/04/09 14:59:16;;;;;;;0.60;0.10;;;17.50;99.90;;;;;;4903070;29;20870;-70
2023/04/09 15:01:44;;;;;;;0.60;0.10;;;17.60;99.90;;;;;;4900532;29;20468;-71
2023/04/09 15:04:12;;;;;;;0.60;0.20;;;17.90;99.90;;;;;;4900943;29;20459;-70
2023/04/09 15:06:40;;;;;;;0.60;0.10;;;18.20;99.90;;;;;;4903886;29;21055;-71
2023/04/09 15:09:07;;;;;;;0.60;0.20;;;18.20;99.90;;;;;;4903942;29;20512;-69
2023/04/09 15:11:37;;;;;;;0.60;0.10;;;18.40;99.90;;;;;;4893263;29;20464;-69
2023/04/09 15:14:04;;;;;;;0.60;0.10;;;18.60;99.90;;;;;;4900439;29;20482;-72
2023/04/09 15:16:36;;;;;;;0.60;0.10;;;18.90;97.80;;;;;;4900720;29;20485;-71
2023/04/09 15:19:04;;;;;;;0.60;0.20;;;19.00;99.90;;;;;;4906140;29;20445;-70
2023/04/09 15:21:32;;;;;;;0.60;0.10;;;19.20;99.90;;;;;;4897017;29;20482;-71
2023/04/09 15:24:00;;;;;;;0.60;0.10;;;19.30;99.90;;;;;;4901040;29;20462;-73
2023/04/09 15:26:28;;;;;;;0.60;0.10;;;19.30;93.30;;;;;;4900321;29;20473;-70
2023/04/09 15:29:02;;;;;;;0.60;0.10;;;19.30;98.20;;;;;;4900779;29;20488;-71
2023/04/09 15:31:31;;;;;;;0.70;0.43;;;19.10;96.50;;;;;;4907658;29;20507;-71
2023/04/09 15:33:59;;;;;;;0.60;0.10;;;19.00;97.10;;;;;;4910023;29;20514;-71
2023/04/09 15:36:28;;;;;;;0.60;0.20;;;18.90;90.60;;;;;;4903691;29;20461;-70
2023/04/09 15:38:56;;;;;;;0.60;0.10;;;18.80;95.40;;;;;;4901800;29;20472;-70
2023/04/09 15:41:25;;;;;;;0.60;0.10;;;18.70;96.00;;;;;;4900731;29;20446;-71
2023/04/09 15:43:53;;;;;;;0.60;0.10;;;18.60;95.80;;;;;;4908808;29;20453;-70
2023/04/09 15:46:22;;;;;;;0.60;0.10;;;18.30;88.20;;;;;;4890621;29;20975;-71
2023/04/09 15:48:50;;;;;;;0.60;0.10;;;18.30;94.10;;;;;;4900265;29;20460;-69
2023/04/09 15:51:18;;;;;;;0.60;0.10;;;18.10;95.10;;;;;;4890789;29;20447;-70
2023/04/09 15:53:46;;;;;;;0.60;0.10;;;18.00;94.50;;;;;;4897396;29;20472;-70
2023/04/09 15:56:15;;;;;;;0.60;0.10;;;17.90;90.30;;;;;;4899346;29;20484;-71
2023/04/09 15:58:43;;;;;;;0.60;0.10;;;17.90;90.10;;;;;;4900697;29;20457;-70
2023/04/09 16:01:11;;;;;;;0.60;0.10;;;17.80;95.20;;;;;;4903000;29;20504;-71
2023/04/09 16:03:40;;;;;;;0.60;0.13;;;17.80;95.80;;;;;;4910215;29;20514;-74
2023/04/09 16:06:11;;;;;;;0.60;0.10;;;17.80;90.30;;;;;;4907405;29;20480;-73
2023/04/09 16:08:40;;;;;;;0.60;0.10;;;17.80;95.90;;;;;;4900369;29;20452;-73
2023/04/09 16:11:08;;;;;;;0.60;0.10;;;18.30;97.60;;;;;;4900083;29;20488;-72
2023/04/09 16:13:36;;;;;;;0.60;0.10;;;19.00;98.10;;;;;;4899382;29;20453;-73
2023/04/09 16:16:07;;;;;;;0.70;0.37;;;20.30;90.20;;;;;;4900955;29;20461;-73
2023/04/09 16:18:35;;;;;;;0.60;0.10;;;20.30;95.70;;;;;;4903283;29;20953;-74
2023/04/09 16:21:05;;;;;;;0.60;0.10;;;21.60;89.40;;;;;;4900690;29;20450;-74
2023/04/09 16:23:33;;;;;;;0.63;0.17;;;21.70;92.90;;;;;;4903644;29;20553;-74
2023/04/09 16:26:01;;;;;;;0.60;0.10;;;23.30;76.40;;;;;;4901315;29;20540;-71
2023/04/09 16:28:28;;;;;;;0.70;0.10;;;23.30;87.70;;;;;;4897603;29;20466;-72
2023/04/09 16:30:56;;;;;;;0.70;0.20;;;24.30;79.40;;;;;;4898880;29;20492;-73
2023/04/09 16:33:24;;;;;;;4.40;1.20;;;25.40;75.20;;;;;;4898551;29;20449;-71
2023/04/09 16:35:52;;;;;;;0.70;0.10;;;26.50;67.30;;;;;;4898739;29;20449;-72
2023/04/09 16:38:22;;;;;;;0.70;0.10;;;27.30;49.10;;;;;;4894957;29;20551;-72
2023/04/09 16:40:50;;;;;;;0.70;0.10;;;27.90;48.80;;;;;;4899253;29;20460;-70
2023/04/09 16:43:18;;;;;;;0.70;0.10;;;28.40;44.30;;;;;;4900287;29;20460;-72
2023/04/09 16:45:45;;;;;;;0.70;0.20;;;28.90;39.40;;;;;;4899584;29;20469;-71
2023/04/09 16:48:13;;;;;;;0.70;0.10;;;29.10;25.80;;;;;;4898988;29;20552;-73
2023/04/09 16:50:41;;;;;;;0.70;0.10;;;29.40;32.70;;;;;;4897071;29;20549;-72
2023/04/09 16:53:09;;;;;;;0.70;0.10;;;29.50;28.80;;;;;;4896480;29;20449;-73
2023/04/09 16:55:38;;;;;;;0.70;0.20;;;29.10;25.80;;;;;;4896944;29;20453;-72
2023/04/09 16:58:06;;;;;;;0.70;0.20;;;28.60;15.90;;;;;;4896982;29;21260;-73
2023/04/09 17:00:35;;;;;;;0.70;0.17;;;28.00;23.60;;;;;;4891371;29;20535;-72